createdAt,value
2022-10-06T00:04:29.186Z,94594.91
2022-10-06T00:09:32.209Z,94604.91
2022-10-06T00:14:36.657Z,94595.94
2022-10-06T00:19:39.705Z,94601.00
2022-10-06T00:24:42.694Z,94596.97
2022-10-06T00:29:46.206Z,94584.69
2022-10-06T00:34:49.196Z,94594.81
2022-10-06T00:39:52.666Z,94592.34
2022-10-06T00:45:00.493Z,94576.34
2022-10-06T00:50:04.543Z,94566.97
2022-10-06T00:55:11.984Z,94550.19
2022-10-06T01:00:15.669Z,94571.53
2022-10-06T01:05:28.037Z,94551.38
2022-10-06T01:10:31.773Z,94543.84
2022-10-06T01:15:35.119Z,94560.44
2022-10-06T01:20:39.382Z,94547.97
2022-10-06T01:25:43.710Z,94556.78
2022-10-06T01:30:53.166Z,94561.78
2022-10-06T01:35:58.899Z,94538.31
2022-10-06T01:41:03.105Z,94542.84
2022-10-06T01:46:06.842Z,94528.97
2022-10-06T01:51:18.712Z,94536.84
2022-10-06T01:56:23.285Z,94532.13
2022-10-06T02:01:27.820Z,94546.97
2022-10-06T02:06:31.635Z,94536.38
2022-10-06T02:11:35.576Z,94520.63
2022-10-06T02:16:41.253Z,94515.91
2022-10-06T02:21:44.939Z,94531.00
2022-10-06T02:26:48.941Z,94506.81
2022-10-06T02:31:52.530Z,94518.41
2022-10-06T02:36:57.029Z,94515.41
2022-10-06T02:42:00.973Z,94529.22
2022-10-06T02:47:04.053Z,94525.97
2022-10-06T02:52:07.489Z,94526.38
2022-10-06T02:57:11.170Z,94530.25
2022-10-06T03:02:14.946Z,94530.78
2022-10-06T03:07:19.034Z,94540.41
2022-10-06T03:12:23.444Z,94521.19
2022-10-06T03:17:26.538Z,94551.81
2022-10-06T03:22:32.918Z,94536.75
2022-10-06T03:27:37.116Z,94557.06
2022-10-06T03:32:42.521Z,94557.19
2022-10-06T03:37:47.360Z,94521.97
2022-10-06T03:42:51.810Z,94543.34
2022-10-06T03:47:56.759Z,94548.97
2022-10-06T03:53:01.635Z,94543.34
2022-10-06T03:58:06.393Z,94534.94
2022-10-06T04:03:10.231Z,94541.56
2022-10-06T04:08:15.747Z,94533.16
2022-10-06T04:13:22.803Z,94547.84
2022-10-06T04:18:26.765Z,94543.78
2022-10-06T04:23:30.671Z,94540.78
2022-10-06T04:28:34.904Z,94528.81
2022-10-06T04:33:38.691Z,94544.88
2022-10-06T04:38:42.132Z,94543.78
2022-10-06T04:43:47.593Z,94550.03
2022-10-06T04:48:52.687Z,94556.53
2022-10-06T04:53:57.129Z,94556.41
2022-10-06T04:59:01.877Z,94556.22
2022-10-06T05:04:07.901Z,94530.75
2022-10-06T05:09:16.109Z,94534.47
2022-10-06T05:14:31.558Z,94550.59
2022-10-06T05:19:34.825Z,94551.50
2022-10-06T05:24:39.016Z,94562.44
2022-10-06T05:29:42.500Z,94548.94
2022-10-06T05:34:46.067Z,94537.06
2022-10-06T05:39:49.668Z,94566.56
2022-10-06T05:44:52.880Z,94568.19
2022-10-06T05:49:56.669Z,94561.06
2022-10-06T05:55:00.753Z,94536.69
2022-10-06T06:00:05.201Z,94557.16
2022-10-06T06:05:16.176Z,94549.28
2022-10-06T06:10:19.735Z,94548.63
2022-10-06T06:15:42.310Z,94524.56
2022-10-06T06:20:45.503Z,94510.34
2022-10-06T06:26:02.673Z,94519.03
2022-10-06T06:31:14.120Z,94512.97
2022-10-06T06:36:26.148Z,94529.88
2022-10-06T06:41:33.413Z,94519.09
2022-10-06T06:46:45.102Z,94531.94
2022-10-06T06:51:53.088Z,94531.28
2022-10-06T06:56:59.058Z,94529.13
2022-10-06T07:02:03.714Z,94545.44
2022-10-06T07:07:11.871Z,94548.00
2022-10-06T07:12:16.091Z,94555.09
2022-10-06T07:17:43.599Z,94556.03
2022-10-06T07:23:06.925Z,94564.06
2022-10-06T07:28:12.717Z,94571.56
2022-10-06T07:33:18.404Z,94571.44
2022-10-06T07:38:26.269Z,94570.75
2022-10-06T07:43:31.486Z,94573.84
2022-10-06T07:48:38.292Z,94580.47
2022-10-06T07:53:41.515Z,94577.69
2022-10-06T07:58:51.768Z,94590.94
2022-10-06T08:03:54.965Z,94589.06
2022-10-06T08:08:58.146Z,94607.34
2022-10-06T08:14:01.731Z,94609.44
2022-10-06T08:19:05.558Z,94626.81
2022-10-06T08:24:10.100Z,94616.41
2022-10-06T08:29:13.074Z,94614.81
2022-10-06T08:34:16.767Z,94615.97
2022-10-06T08:39:20.851Z,94600.16
2022-10-06T08:44:38.676Z,94619.94
2022-10-06T08:49:46.169Z,94612.06
2022-10-06T08:55:07.089Z,94618.69
2022-10-06T09:00:21.123Z,94615.06
2022-10-06T09:05:28.706Z,94625.97
2022-10-06T09:10:49.975Z,94623.19
2022-10-06T09:16:14.222Z,94581.88
2022-10-06T09:21:20.237Z,94610.59
2022-10-06T09:26:32.980Z,94606.84
2022-10-06T09:31:42.793Z,94619.03
2022-10-06T09:37:09.384Z,94594.41
2022-10-06T09:42:21.625Z,94608.31
2022-10-06T09:47:32.208Z,94617.09
2022-10-06T09:52:36.027Z,94609.53
2022-10-06T09:57:48.165Z,94608.00
2022-10-06T10:02:58.277Z,94586.00
2022-10-06T10:08:31.077Z,94605.63
2022-10-06T10:13:44.370Z,94603.25
2022-10-06T10:18:51.243Z,94592.25
2022-10-06T10:24:01.001Z,94584.13
2022-10-06T10:29:34.421Z,94584.28
2022-10-06T10:35:03.643Z,94590.81
2022-10-06T10:40:30.274Z,94578.84
2022-10-06T10:45:36.019Z,94580.75
2022-10-06T10:50:54.882Z,94578.31
2022-10-06T10:55:58.324Z,94574.72
2022-10-06T11:01:17.093Z,94570.78
2022-10-06T11:07:00.860Z,94575.75
2022-10-06T11:12:25.337Z,94568.41
2022-10-06T11:17:45.153Z,94564.41
2022-10-06T11:23:30.224Z,94563.31
2022-10-06T11:28:50.339Z,94558.63
2022-10-06T11:34:01.277Z,94553.25
2022-10-06T11:39:30.328Z,94552.28
2022-10-06T11:44:47.942Z,94549.28
2022-10-06T11:49:56.304Z,94549.72
2022-10-06T11:55:22.328Z,94534.03
2022-10-06T12:00:28.598Z,94530.81
2022-10-06T12:10:55.588Z,94527.31
2022-10-06T12:21:50.673Z,94527.72
2022-10-06T12:26:59.984Z,94520.03
2022-10-06T12:32:34.024Z,94514.81
2022-10-06T12:37:44.592Z,94511.44
2022-10-06T12:42:48.259Z,94498.97
2022-10-06T12:47:51.930Z,94507.84
2022-10-06T12:53:14.724Z,94502.94
2022-10-06T12:58:32.618Z,94492.78
2022-10-06T13:03:37.090Z,94486.22
2022-10-06T13:08:40.533Z,94490.97
2022-10-06T13:13:58.794Z,94495.44
2022-10-06T13:19:02.406Z,94497.91
2022-10-06T13:24:06.195Z,94464.28
2022-10-06T13:29:25.881Z,94479.84
2022-10-06T13:34:43.602Z,94483.69
2022-10-06T13:39:46.969Z,94479.56
2022-10-06T13:45:01.179Z,94477.72
2022-10-06T13:50:18.790Z,94474.69
2022-10-06T13:55:25.722Z,94475.75
2022-10-06T14:00:49.260Z,94438.53
2022-10-06T14:06:08.800Z,94477.16
2022-10-06T14:11:12.273Z,94471.88
2022-10-06T14:16:24.353Z,94467.25
2022-10-06T14:21:37.153Z,94453.31
2022-10-06T14:26:40.918Z,94467.34
2022-10-06T14:31:48.154Z,94460.56
2022-10-06T14:36:52.502Z,94466.88
2022-10-06T14:41:56.155Z,94455.59
2022-10-06T14:46:59.187Z,94469.22
2022-10-06T14:52:02.548Z,94463.56
2022-10-06T14:57:06.446Z,94468.75
2022-10-06T15:02:11.745Z,94465.03
2022-10-06T15:07:36.130Z,94459.00
2022-10-06T15:12:40.616Z,94474.22
2022-10-06T15:17:43.700Z,94453.47
2022-10-06T15:22:46.739Z,94469.84
2022-10-06T15:28:08.129Z,94436.59
2022-10-06T15:33:11.592Z,94467.22
2022-10-06T15:38:15.100Z,94471.78
2022-10-06T15:43:38.081Z,94460.88
2022-10-06T15:48:43.307Z,94469.97
2022-10-06T15:53:46.986Z,94464.59
2022-10-06T15:58:50.241Z,94458.34
2022-10-06T16:03:53.945Z,94456.75
2022-10-06T16:08:57.981Z,94464.78
2022-10-06T16:14:01.201Z,94464.56
2022-10-06T16:19:05.039Z,94470.84
2022-10-06T16:24:08.329Z,94484.56
2022-10-06T16:29:12.629Z,94474.16
2022-10-06T16:34:17.024Z,94462.13
2022-10-06T16:39:22.617Z,94485.91
2022-10-06T16:44:26.810Z,94482.84
2022-10-06T16:49:30.638Z,94491.09
2022-10-06T16:54:34.734Z,94497.00
2022-10-06T16:59:39.546Z,94498.91
2022-10-06T17:04:45.603Z,94483.53
2022-10-06T17:10:15.365Z,94478.78
2022-10-06T17:15:18.578Z,94479.06
2022-10-06T17:20:24.602Z,94481.31
2022-10-06T17:25:27.623Z,94488.31
2022-10-06T17:30:31.014Z,94494.53
2022-10-06T17:35:38.219Z,94502.38
2022-10-06T17:40:45.233Z,94508.53
2022-10-06T17:45:49.764Z,94501.75
2022-10-06T17:51:00.644Z,94500.25
2022-10-06T17:56:08.783Z,94516.31
2022-10-06T18:01:19.715Z,94519.06
2022-10-06T18:06:27.219Z,94522.56
2022-10-06T18:11:43.476Z,94527.16
2022-10-06T18:16:52.079Z,94529.72
2022-10-06T18:22:10.855Z,94534.19
2022-10-06T18:27:15.349Z,94548.19
2022-10-06T18:37:42.362Z,94550.00
2022-10-06T18:42:47.900Z,94551.06
2022-10-06T18:48:10.763Z,94566.41
2022-10-06T18:53:13.984Z,94565.88
2022-10-06T18:58:19.698Z,94568.94
2022-10-06T19:03:23.346Z,94521.16
2022-10-06T19:08:27.799Z,94565.78
2022-10-06T19:13:31.338Z,94570.16
2022-10-06T19:18:39.145Z,94580.84
2022-10-06T19:23:43.412Z,94584.94
2022-10-06T19:28:47.292Z,94568.47
2022-10-06T19:33:50.811Z,94564.50
2022-10-06T19:38:57.248Z,94577.03
2022-10-06T19:44:03.320Z,94577.31
2022-10-06T19:49:08.524Z,94568.25
2022-10-06T19:54:13.459Z,94570.13
2022-10-06T19:59:21.657Z,94577.47
2022-10-06T20:04:26.050Z,94569.38
2022-10-06T20:09:32.725Z,94577.19
2022-10-06T20:14:36.672Z,94579.00
2022-10-06T20:19:40.509Z,94572.00
2022-10-06T20:24:43.541Z,94579.59
2022-10-06T20:29:47.212Z,94574.06
2022-10-06T20:34:51.027Z,94586.69
2022-10-06T20:40:12.783Z,94583.25
2022-10-06T20:45:16.546Z,94592.63
2022-10-06T20:50:20.595Z,94578.81
2022-10-06T20:55:25.174Z,94568.81
2022-10-06T21:00:28.981Z,94580.50
2022-10-06T21:05:34.030Z,94580.47
2022-10-06T21:10:37.094Z,94580.75
2022-10-06T21:15:45.941Z,94571.97
2022-10-06T21:21:07.871Z,94568.34
2022-10-06T21:26:14.553Z,94584.72
2022-10-06T21:31:19.328Z,94581.50
2022-10-06T21:36:27.290Z,94570.31
2022-10-06T21:41:36.332Z,94570.59
2022-10-06T21:46:48.411Z,94568.69
2022-10-06T21:51:54.638Z,94569.03
2022-10-06T21:56:58.305Z,94567.81
2022-10-06T22:02:03.178Z,94562.47
2022-10-06T22:07:06.604Z,94562.16
2022-10-06T22:12:10.552Z,94561.28
2022-10-06T22:17:14.251Z,94557.06
2022-10-06T22:22:18.050Z,94554.53
2022-10-06T22:27:21.065Z,94553.19
2022-10-06T22:32:25.065Z,94530.59
2022-10-06T22:37:28.157Z,94549.31
2022-10-06T22:42:31.858Z,94540.91
2022-10-06T22:47:35.778Z,94525.06
2022-10-06T22:52:39.318Z,94532.53
2022-10-06T22:57:43.700Z,94529.25
2022-10-06T23:02:47.291Z,94532.19
2022-10-06T23:07:51.722Z,94516.47
2022-10-06T23:12:56.300Z,94515.22
2022-10-06T23:17:59.980Z,94521.53
2022-10-06T23:23:03.712Z,94526.59
2022-10-06T23:28:06.815Z,94504.06
2022-10-06T23:33:09.825Z,94528.03
2022-10-06T23:38:12.850Z,94520.47
2022-10-06T23:43:16.913Z,94512.53
2022-10-06T23:48:20.200Z,94508.06
2022-10-06T23:53:23.692Z,94512.38
2022-10-06T23:58:38.840Z,94513.69
